createdAt,value
2023-04-07T00:00:00.281Z,96132.38
2023-04-07T00:02:29.231Z,96131.59
2023-04-07T00:05:01.167Z,96119.94
2023-04-07T00:07:30.315Z,96136.63
2023-04-07T00:10:00.899Z,96135.91
2023-04-07T00:12:29.823Z,96130.16
2023-04-07T00:14:58.430Z,96135.19
2023-04-07T00:17:27.426Z,96136.00
2023-04-07T00:19:56.226Z,96126.03
2023-04-07T00:22:24.756Z,96129.44
2023-04-07T00:24:53.920Z,96126.44
2023-04-07T00:27:24.434Z,96126.69
2023-04-07T00:29:55.594Z,96125.06
2023-04-07T00:32:24.146Z,96123.31
2023-04-07T00:34:52.806Z,96122.41
2023-04-07T00:37:21.321Z,96122.41
2023-04-07T00:39:51.703Z,96124.88
2023-04-07T00:42:20.488Z,96119.69
2023-04-07T00:44:50.837Z,96117.13
2023-04-07T00:47:19.605Z,96116.19
2023-04-07T00:49:48.507Z,96105.28
2023-04-07T00:52:17.597Z,96105.28
2023-04-07T00:54:46.962Z,96107.31
2023-04-07T00:57:16.255Z,96105.47
2023-04-07T00:59:45.522Z,96100.38
2023-04-07T01:02:18.844Z,96099.72
2023-04-07T01:04:54.153Z,96102.97
2023-04-07T01:07:26.086Z,96103.00
2023-04-07T01:09:56.946Z,96100.25
2023-04-07T01:12:31.527Z,96100.00
2023-04-07T01:15:21.701Z,96105.69
2023-04-07T01:17:55.929Z,96099.78
2023-04-07T01:20:25.184Z,96096.38
2023-04-07T01:22:56.290Z,96098.03
2023-04-07T01:25:41.741Z,96087.19
2023-04-07T01:28:17.488Z,96095.63
2023-04-07T01:30:47.515Z,96093.09
2023-04-07T01:33:17.387Z,96084.59
2023-04-07T01:35:45.968Z,96082.66
2023-04-07T01:38:14.903Z,96083.25
2023-04-07T01:40:43.592Z,96086.41
2023-04-07T01:43:13.391Z,96086.53
2023-04-07T01:45:42.411Z,96079.84
2023-04-07T01:48:12.778Z,96079.72
2023-04-07T01:50:41.369Z,96081.28
2023-04-07T01:53:10.086Z,96068.59
2023-04-07T01:55:39.762Z,96072.81
2023-04-07T01:58:08.677Z,96076.63
2023-04-07T02:00:37.836Z,96053.59
2023-04-07T02:03:10.472Z,96073.16
2023-04-07T02:05:41.702Z,96077.28
2023-04-07T02:08:10.518Z,96071.41
2023-04-07T02:10:40.747Z,96072.28
2023-04-07T02:13:10.333Z,96068.06
2023-04-07T02:16:16.073Z,96057.81
2023-04-07T02:18:48.276Z,96057.63
2023-04-07T02:21:18.783Z,96055.78
2023-04-07T02:23:48.446Z,96054.81
2023-04-07T02:26:20.013Z,96051.19
2023-04-07T02:28:48.661Z,96044.53
2023-04-07T02:31:17.492Z,96048.56
2023-04-07T02:33:45.982Z,96048.38
2023-04-07T02:36:14.583Z,96054.03
2023-04-07T02:38:44.759Z,96042.13
2023-04-07T02:41:13.098Z,96046.31
2023-04-07T02:43:41.691Z,96034.50
2023-04-07T02:46:10.510Z,96037.78
2023-04-07T02:48:39.551Z,96041.13
2023-04-07T02:51:08.344Z,96035.47
2023-04-07T02:53:37.238Z,96030.66
2023-04-07T02:56:07.469Z,96028.38
2023-04-07T02:58:36.055Z,96032.75
2023-04-07T03:01:05.252Z,96040.31
2023-04-07T03:03:34.190Z,96025.53
2023-04-07T03:06:03.150Z,96030.66
2023-04-07T03:08:32.084Z,96023.22
2023-04-07T03:11:00.637Z,96020.69
2023-04-07T03:13:31.141Z,96019.22
2023-04-07T03:15:59.814Z,96025.09
2023-04-07T03:18:28.390Z,96019.31
2023-04-07T03:20:57.144Z,96014.31
2023-04-07T03:23:25.625Z,96011.88
2023-04-07T03:25:54.347Z,96013.63
2023-04-07T03:28:23.089Z,96017.00
2023-04-07T03:30:53.204Z,96017.06
2023-04-07T03:33:21.719Z,96012.94
2023-04-07T03:35:52.865Z,96007.31
2023-04-07T03:38:21.821Z,96017.63
2023-04-07T03:40:50.738Z,96003.69
2023-04-07T03:43:19.249Z,96007.16
2023-04-07T03:45:51.886Z,96002.97
2023-04-07T03:48:21.958Z,96005.56
2023-04-07T03:50:50.323Z,96009.03
2023-04-07T03:53:20.659Z,96005.75
2023-04-07T03:55:49.378Z,96008.22
2023-04-07T03:58:18.178Z,96005.75
2023-04-07T04:00:54.835Z,96007.56
2023-04-07T04:03:28.456Z,96000.88
2023-04-07T04:05:59.886Z,95998.44
2023-04-07T04:08:28.924Z,95999.38
2023-04-07T04:15:11.803Z,95998.56
2023-04-07T04:17:40.501Z,96000.25
2023-04-07T04:20:11.482Z,95992.69
2023-04-07T04:22:40.229Z,95991.88
2023-04-07T04:25:09.074Z,95994.41
2023-04-07T04:27:37.948Z,95995.25
2023-04-07T04:30:08.255Z,95985.38
2023-04-07T04:32:37.009Z,95996.72
2023-04-07T04:35:06.528Z,95997.50
2023-04-07T04:37:37.390Z,95994.97
2023-04-07T04:40:08.636Z,95994.84
2023-04-07T04:42:37.521Z,95985.53
2023-04-07T04:45:06.994Z,95988.75
2023-04-07T04:47:35.652Z,95974.75
2023-04-07T04:50:04.401Z,95985.28
2023-04-07T04:52:33.020Z,95984.34
2023-04-07T04:55:03.862Z,95985.13
2023-04-07T04:57:32.458Z,95975.22
2023-04-07T05:00:01.255Z,95983.41
2023-04-07T05:02:32.418Z,95982.34
2023-04-07T05:05:01.315Z,95980.47
2023-04-07T05:07:30.541Z,95985.97
2023-04-07T05:09:59.273Z,95979.84
2023-04-07T05:12:31.499Z,95987.16
2023-04-07T05:15:00.959Z,95986.16
2023-04-07T05:17:30.013Z,95982.47
2023-04-07T05:19:58.634Z,95985.59
2023-04-07T05:22:27.399Z,95987.97
2023-04-07T05:24:56.627Z,95991.19
2023-04-07T05:27:25.959Z,95991.06
2023-04-07T05:29:56.592Z,95988.41
2023-04-07T05:32:27.792Z,95994.19
2023-04-07T05:34:57.279Z,95994.06
2023-04-07T05:37:25.697Z,95988.84
2023-04-07T05:39:54.699Z,95984.56
2023-04-07T05:42:23.296Z,95989.41
2023-04-07T05:44:52.062Z,95991.66
2023-04-07T05:47:21.962Z,95983.97
2023-04-07T05:49:50.612Z,95982.16
2023-04-07T05:52:19.673Z,95984.69
2023-04-07T05:54:48.146Z,95979.53
2023-04-07T05:57:19.105Z,95986.84
2023-04-07T05:59:47.653Z,95974.81
2023-04-07T06:02:16.629Z,95982.84
2023-04-07T06:04:47.142Z,95977.44
2023-04-07T06:07:16.542Z,95978.53
2023-04-07T06:10:10.839Z,95977.94
2023-04-07T06:12:42.229Z,95971.75
2023-04-07T06:15:11.669Z,95969.81
2023-04-07T06:17:40.535Z,95957.00
2023-04-07T06:20:11.234Z,95960.50
2023-04-07T06:22:40.866Z,95974.34
2023-04-07T06:25:10.247Z,95964.63
2023-04-07T06:27:38.958Z,95966.78
2023-04-07T06:30:08.927Z,95970.13
2023-04-07T06:32:37.537Z,95960.41
2023-04-07T06:35:07.085Z,95965.81
2023-04-07T06:37:37.262Z,95960.81
2023-04-07T06:40:06.615Z,95954.81
2023-04-07T06:42:35.926Z,95959.63
2023-04-07T06:45:04.888Z,95962.25
2023-04-07T06:47:33.612Z,95960.84
2023-04-07T06:50:02.182Z,95956.97
2023-04-07T06:52:31.365Z,95964.81
2023-04-07T06:55:01.823Z,95959.91
2023-04-07T06:57:30.735Z,95956.53
2023-04-07T06:59:59.243Z,95955.94
2023-04-07T07:02:27.990Z,95951.47
2023-04-07T07:04:56.472Z,95950.06
2023-04-07T07:07:26.056Z,95941.75
2023-04-07T07:09:55.421Z,95947.22
2023-04-07T07:12:28.435Z,95944.88
2023-04-07T07:14:57.280Z,95949.88
2023-04-07T07:17:26.026Z,95945.78
2023-04-07T07:19:54.710Z,95942.59
2023-04-07T07:22:23.273Z,95948.72
2023-04-07T07:24:52.025Z,95946.59
2023-04-07T07:27:20.936Z,95940.34
2023-04-07T07:29:50.575Z,95942.25
2023-04-07T07:32:22.291Z,95944.63
2023-04-07T07:34:50.669Z,95941.78
2023-04-07T07:37:19.562Z,95941.47
2023-04-07T07:39:48.139Z,95943.09
2023-04-07T07:42:17.174Z,95938.81
2023-04-07T07:44:46.025Z,95925.41
2023-04-07T07:47:16.713Z,95939.34
2023-04-07T07:49:45.566Z,95924.19
2023-04-07T07:52:14.450Z,95919.72
2023-04-07T07:54:43.246Z,95932.22
2023-04-07T07:57:13.954Z,95920.47
2023-04-07T07:59:42.745Z,95925.53
2023-04-07T08:02:12.153Z,95918.38
2023-04-07T08:04:42.502Z,95912.53
2023-04-07T08:07:11.755Z,95912.13
2023-04-07T08:09:40.865Z,95915.75
2023-04-07T08:12:17.015Z,95922.22
2023-04-07T08:14:45.745Z,95913.91
2023-04-07T08:17:16.534Z,95908.25
2023-04-07T08:19:46.845Z,95907.13
2023-04-07T08:22:17.125Z,95906.06
2023-04-07T08:24:48.760Z,95904.34
2023-04-07T08:27:17.747Z,95910.56
2023-04-07T08:29:46.394Z,95915.09
2023-04-07T08:32:15.099Z,95894.72
2023-04-07T08:34:43.928Z,95893.97
2023-04-07T08:37:14.284Z,95886.84
2023-04-07T08:39:45.852Z,95896.09
2023-04-07T08:42:16.476Z,95892.75
2023-04-07T08:44:46.639Z,95899.00
2023-04-07T08:47:17.020Z,95888.16
2023-04-07T08:49:46.854Z,95895.97
2023-04-07T08:52:17.488Z,95898.91
2023-04-07T08:54:46.313Z,95897.41
2023-04-07T08:57:15.022Z,95900.41
2023-04-07T08:59:47.347Z,95902.47
2023-04-07T09:02:16.194Z,95898.50
2023-04-07T09:04:47.546Z,95898.53
2023-04-07T09:07:17.778Z,95894.00
2023-04-07T09:09:46.563Z,95890.31
2023-04-07T09:12:15.343Z,95891.31
2023-04-07T09:14:44.180Z,95894.94
2023-04-07T09:17:12.781Z,95885.44
2023-04-07T09:19:44.217Z,95887.72
2023-04-07T09:22:14.592Z,95881.63
2023-04-07T09:24:44.610Z,95889.09
2023-04-07T09:27:17.018Z,95887.78
2023-04-07T09:29:47.227Z,95885.09
2023-04-07T09:32:26.581Z,95891.16
2023-04-07T09:35:00.892Z,95886.00
2023-04-07T09:37:29.644Z,95886.25
2023-04-07T09:39:59.891Z,95883.00
2023-04-07T09:42:32.690Z,95870.47
2023-04-07T09:45:01.838Z,95872.09
2023-04-07T09:47:31.683Z,95865.63
2023-04-07T09:50:06.916Z,95869.72
2023-04-07T09:52:53.224Z,95858.97
2023-04-07T09:55:24.881Z,95866.09
2023-04-07T09:57:55.553Z,95856.31
2023-04-07T10:00:24.939Z,95858.66
2023-04-07T10:02:54.601Z,95848.78
2023-04-07T10:05:23.743Z,95850.03
2023-04-07T10:07:52.749Z,95833.72
2023-04-07T10:10:21.617Z,95844.88
2023-04-07T10:12:52.045Z,95842.75
2023-04-07T10:15:20.624Z,95843.22
2023-04-07T10:17:49.812Z,95841.66
2023-04-07T10:20:43.704Z,95836.72
2023-04-07T10:23:17.961Z,95826.94
2023-04-07T10:25:47.537Z,95829.00
2023-04-07T10:28:18.199Z,95832.50
2023-04-07T10:30:47.135Z,95832.72
2023-04-07T10:33:15.606Z,95826.97
2023-04-07T10:36:06.708Z,95829.22
2023-04-07T10:38:35.600Z,95823.25
2023-04-07T10:41:35.209Z,95819.53
2023-04-07T10:44:05.655Z,95827.88
2023-04-07T10:47:06.346Z,95820.03
2023-04-07T10:49:35.505Z,95815.78
2023-04-07T10:52:25.674Z,95815.41
2023-04-07T10:55:31.868Z,95818.41
2023-04-07T10:58:23.038Z,95817.63
2023-04-07T11:01:22.117Z,95816.63
2023-04-07T11:04:01.667Z,95815.44
2023-04-07T11:06:30.473Z,95807.66
2023-04-07T11:09:00.551Z,95802.63
2023-04-07T11:11:43.437Z,95798.13
2023-04-07T11:14:12.203Z,95798.78
2023-04-07T11:16:46.021Z,95803.97
2023-04-07T11:19:15.886Z,95806.91
2023-04-07T11:21:44.722Z,95802.19
2023-04-07T11:24:35.199Z,95796.22
2023-04-07T11:27:04.741Z,95771.97
2023-04-07T11:29:33.729Z,95798.50
2023-04-07T11:32:04.649Z,95799.78
2023-04-07T11:34:37.582Z,95798.50
2023-04-07T11:37:21.289Z,95799.09
2023-04-07T11:39:55.983Z,95804.91
2023-04-07T11:42:34.850Z,95805.56
2023-04-07T11:45:05.895Z,95807.59
2023-04-07T11:47:38.487Z,95800.88
2023-04-07T11:50:08.059Z,95806.09
2023-04-07T11:52:42.806Z,95806.03
2023-04-07T11:55:21.962Z,95806.53
2023-04-07T11:57:52.139Z,95802.38
2023-04-07T12:03:16.719Z,95803.59
2023-04-07T12:05:46.976Z,95812.69
2023-04-07T12:08:18.200Z,95799.38
2023-04-07T12:10:47.597Z,95804.28
2023-04-07T12:13:17.279Z,95802.00
2023-04-07T12:15:45.873Z,95808.97
2023-04-07T12:18:19.363Z,95812.44
2023-04-07T12:20:47.686Z,95805.56
2023-04-07T12:23:19.206Z,95804.94
2023-04-07T12:25:48.029Z,95804.03
2023-04-07T12:28:17.036Z,95805.78
2023-04-07T12:30:47.726Z,95799.66
2023-04-07T12:33:18.228Z,95808.16
2023-04-07T12:35:46.773Z,95803.00
2023-04-07T12:38:15.997Z,95797.72
2023-04-07T12:40:45.171Z,95794.25
2023-04-07T12:43:14.100Z,95793.50
2023-04-07T12:45:43.570Z,95797.19
2023-04-07T12:48:13.774Z,95798.84
2023-04-07T12:50:43.823Z,95806.03
2023-04-07T12:53:12.510Z,95797.69
2023-04-07T12:55:42.327Z,95800.66
2023-04-07T12:58:11.203Z,95800.59
2023-04-07T13:00:40.039Z,95804.38
2023-04-07T13:03:10.272Z,95794.19
2023-04-07T13:05:39.078Z,95800.31
2023-04-07T13:08:09.410Z,95800.34
2023-04-07T13:10:38.259Z,95807.38
2023-04-07T13:13:06.657Z,95801.16
2023-04-07T13:15:35.518Z,95800.84
2023-04-07T13:18:04.210Z,95800.78
2023-04-07T13:20:33.367Z,95804.41
2023-04-07T13:23:08.250Z,95803.06
2023-04-07T13:25:42.822Z,95797.78
2023-04-07T13:28:11.578Z,95796.88
2023-04-07T13:30:41.941Z,95801.47
2023-04-07T13:33:10.561Z,95796.31
2023-04-07T13:35:39.557Z,95796.78
2023-04-07T13:38:09.582Z,95789.06
2023-04-07T13:40:45.072Z,95790.09
2023-04-07T13:43:13.917Z,95788.72
2023-04-07T13:45:43.406Z,95787.63
2023-04-07T13:48:15.118Z,95789.66
2023-04-07T13:50:44.068Z,95785.34
2023-04-07T13:53:12.757Z,95786.16
2023-04-07T13:55:42.884Z,95779.69
2023-04-07T13:58:12.098Z,95791.25
2023-04-07T14:00:40.861Z,95785.00
2023-04-07T14:03:13.167Z,95786.09
2023-04-07T14:05:42.007Z,95781.66
2023-04-07T14:08:10.543Z,95788.06
2023-04-07T14:10:42.296Z,95782.00
2023-04-07T14:13:11.185Z,95786.03
2023-04-07T14:15:40.320Z,95783.03
2023-04-07T14:18:10.064Z,95775.13
2023-04-07T14:20:41.727Z,95781.13
2023-04-07T14:23:10.464Z,95778.94
2023-04-07T14:25:39.473Z,95781.81
2023-04-07T14:28:11.788Z,95784.91
2023-04-07T14:30:43.732Z,95780.03
2023-04-07T14:33:12.887Z,95785.50
2023-04-07T14:35:42.002Z,95776.44
2023-04-07T14:38:10.753Z,95788.09
2023-04-07T14:40:40.029Z,95775.75
2023-04-07T14:43:10.563Z,95774.81
2023-04-07T14:45:41.321Z,95774.16
2023-04-07T14:48:10.051Z,95775.38
2023-04-07T14:50:39.028Z,95783.75
2023-04-07T14:53:08.161Z,95787.97
2023-04-07T14:55:37.676Z,95772.53
2023-04-07T14:58:06.532Z,95780.38
2023-04-07T15:00:34.961Z,95780.38
2023-04-07T15:03:05.833Z,95771.31
2023-04-07T15:05:34.817Z,95779.84
2023-04-07T15:08:03.659Z,95775.25
2023-04-07T15:10:35.673Z,95780.38
2023-04-07T15:13:04.182Z,95776.31
2023-04-07T15:15:35.057Z,95779.16
2023-04-07T15:18:05.208Z,95773.63
2023-04-07T15:20:34.501Z,95774.19
2023-04-07T15:23:03.783Z,95772.53
2023-04-07T15:25:35.837Z,95766.72
2023-04-07T15:28:05.077Z,95776.88
2023-04-07T15:30:37.429Z,95775.22
2023-04-07T15:33:07.759Z,95775.88
2023-04-07T15:35:36.598Z,95770.34
2023-04-07T15:38:05.492Z,95771.69
2023-04-07T15:40:39.917Z,95771.63
2023-04-07T15:43:11.638Z,95781.09
2023-04-07T15:45:46.618Z,95769.59
2023-04-07T15:48:16.725Z,95775.47
2023-04-07T15:50:46.160Z,95777.31
2023-04-07T15:53:15.413Z,95775.41
2023-04-07T15:55:45.131Z,95773.56
2023-04-07T15:58:16.085Z,95776.84
2023-04-07T16:00:46.448Z,95781.09
2023-04-07T16:03:19.096Z,95785.41
2023-04-07T16:05:48.256Z,95788.72
2023-04-07T16:08:16.989Z,95786.81
2023-04-07T16:10:45.669Z,95789.66
2023-04-07T16:13:18.438Z,95784.97
2023-04-07T16:15:47.792Z,95787.34
2023-04-07T16:18:17.693Z,95789.00
2023-04-07T16:20:47.889Z,95786.84
2023-04-07T16:23:16.944Z,95791.03
2023-04-07T16:25:45.777Z,95793.34
2023-04-07T16:28:14.690Z,95801.19
2023-04-07T16:30:43.855Z,95803.91
2023-04-07T16:33:13.444Z,95804.31
2023-04-07T16:35:42.768Z,95808.50
2023-04-07T16:38:13.891Z,95805.66
2023-04-07T16:40:45.846Z,95809.44
2023-04-07T16:43:18.782Z,95812.81
2023-04-07T16:45:54.112Z,95812.53
2023-04-07T16:48:22.828Z,95814.84
2023-04-07T16:50:51.672Z,95814.16
2023-04-07T16:53:21.938Z,95814.94
2023-04-07T16:55:50.496Z,95813.00
2023-04-07T16:58:19.878Z,95814.88
2023-04-07T17:00:48.514Z,95821.88
2023-04-07T17:03:17.191Z,95824.94
2023-04-07T17:05:47.485Z,95826.41
2023-04-07T17:08:16.292Z,95825.81
2023-04-07T17:10:46.216Z,95830.19
2023-04-07T17:13:17.301Z,95828.81
2023-04-07T17:15:46.238Z,95839.72
2023-04-07T17:18:15.230Z,95838.16
2023-04-07T17:20:43.947Z,95836.78
2023-04-07T17:23:13.026Z,95844.28
2023-04-07T17:25:41.637Z,95840.88
2023-04-07T17:28:12.235Z,95845.19
2023-04-07T17:30:41.752Z,95854.22
2023-04-07T17:33:10.854Z,95854.69
2023-04-07T17:35:39.844Z,95857.06
2023-04-07T17:38:08.546Z,95859.31
2023-04-07T17:40:36.946Z,95863.16
2023-04-07T17:43:05.525Z,95866.19
2023-04-07T17:45:36.125Z,95869.25
2023-04-07T17:48:05.729Z,95874.47
2023-04-07T17:50:34.895Z,95883.44
2023-04-07T17:53:05.824Z,95886.13
2023-04-07T17:55:34.696Z,95887.41
2023-04-07T17:58:03.693Z,95887.78
2023-04-07T18:00:33.030Z,95894.41
2023-04-07T18:03:04.261Z,95895.56
2023-04-07T18:05:33.445Z,95905.94
2023-04-07T18:08:05.420Z,95914.53
2023-04-07T18:10:34.679Z,95912.31
2023-04-07T18:13:05.060Z,95918.38
2023-04-07T18:15:33.870Z,95916.75
2023-04-07T18:18:07.174Z,95916.75
2023-04-07T18:20:38.030Z,95916.97
2023-04-07T18:23:07.374Z,95912.69
2023-04-07T18:25:36.809Z,95916.41
2023-04-07T18:28:08.348Z,95916.75
2023-04-07T18:30:37.710Z,95925.56
2023-04-07T18:33:07.998Z,95926.63
2023-04-07T18:35:39.078Z,95930.22
2023-04-07T18:38:10.696Z,95933.25
2023-04-07T18:40:40.438Z,95937.53
2023-04-07T18:43:09.783Z,95931.03
2023-04-07T18:45:39.358Z,95934.97
2023-04-07T18:48:09.966Z,95936.00
2023-04-07T18:50:38.349Z,95937.97
2023-04-07T18:53:07.681Z,95942.25
2023-04-07T18:55:36.611Z,95938.31
2023-04-07T18:58:05.813Z,95939.22
2023-04-07T19:00:36.578Z,95941.06
2023-04-07T19:03:05.948Z,95933.53
2023-04-07T19:05:41.938Z,95942.38
2023-04-07T19:08:12.239Z,95936.53
2023-04-07T19:10:41.201Z,95934.09
2023-04-07T19:13:10.174Z,95943.38
2023-04-07T19:15:40.830Z,95943.63
2023-04-07T19:18:09.549Z,95942.09
2023-04-07T19:20:39.613Z,95942.19
2023-04-07T19:23:10.755Z,95949.97
2023-04-07T19:25:40.560Z,95954.28
2023-04-07T19:28:10.301Z,95945.94
2023-04-07T19:30:39.361Z,95946.84
2023-04-07T19:33:08.534Z,95953.59
2023-04-07T19:35:41.257Z,95954.50
2023-04-07T19:38:11.875Z,95952.88
2023-04-07T19:40:42.699Z,95955.56
2023-04-07T19:43:11.856Z,95954.97
2023-04-07T19:45:40.831Z,95951.69
2023-04-07T19:48:09.329Z,95963.06
2023-04-07T19:50:45.420Z,95964.09
2023-04-07T19:53:18.092Z,95961.66
2023-04-07T19:55:48.895Z,95968.50
2023-04-07T19:58:19.074Z,95962.69
2023-04-07T20:00:50.049Z,95968.03
2023-04-07T20:03:19.270Z,95969.97
2023-04-07T20:05:48.369Z,95971.81
2023-04-07T20:08:18.495Z,95958.19
2023-04-07T20:10:47.291Z,95971.56
2023-04-07T20:13:15.875Z,95965.25
2023-04-07T20:15:45.312Z,95957.72
2023-04-07T20:18:18.712Z,95965.03
2023-04-07T20:20:48.494Z,95954.34
2023-04-07T20:23:22.364Z,95958.44
2023-04-07T20:25:51.180Z,95973.94
2023-04-07T20:28:22.761Z,95961.50
2023-04-07T20:30:51.691Z,95962.53
2023-04-07T20:33:20.816Z,95968.47
2023-04-07T20:35:49.817Z,95961.94
2023-04-07T20:38:20.513Z,95968.91
2023-04-07T20:40:49.152Z,95974.19
2023-04-07T20:43:20.647Z,95971.88
2023-04-07T20:45:49.465Z,95983.91
2023-04-07T20:48:23.608Z,95981.81
2023-04-07T20:51:17.700Z,95983.75
2023-04-07T20:53:47.870Z,95982.94
2023-04-07T20:56:19.678Z,95978.75
2023-04-07T20:58:48.993Z,95981.44
2023-04-07T21:01:18.174Z,95985.81
2023-04-07T21:03:48.258Z,95972.22
2023-04-07T21:06:17.550Z,95970.41
2023-04-07T21:08:48.356Z,95971.41
2023-04-07T21:11:17.382Z,95965.72
2023-04-07T21:13:46.261Z,95972.56
2023-04-07T21:16:15.269Z,95963.25
2023-04-07T21:18:44.054Z,95959.19
2023-04-07T21:21:13.224Z,95966.13
2023-04-07T21:23:42.147Z,95961.06
2023-04-07T21:26:12.689Z,95963.41
2023-04-07T21:28:41.362Z,95965.03
2023-04-07T21:31:10.432Z,95959.94
2023-04-07T21:33:40.012Z,95960.53
2023-04-07T21:36:09.093Z,95959.59
2023-04-07T21:38:40.372Z,95961.97
2023-04-07T21:41:09.262Z,95957.88
2023-04-07T21:43:39.731Z,95958.72
2023-04-07T21:46:08.467Z,95956.38
2023-04-07T21:48:37.456Z,95958.94
2023-04-07T21:51:06.090Z,95959.94
2023-04-07T21:53:35.969Z,95956.56
2023-04-07T21:56:04.982Z,95953.34
2023-04-07T21:58:33.934Z,95960.16
2023-04-07T22:01:04.668Z,95957.59
2023-04-07T22:03:33.660Z,95951.91
2023-04-07T22:06:04.652Z,95951.91
2023-04-07T22:08:33.347Z,95948.75
2023-04-07T22:11:02.000Z,95946.19
2023-04-07T22:13:30.977Z,95948.84
2023-04-07T22:16:02.460Z,95952.41
2023-04-07T22:18:32.945Z,95953.25
2023-04-07T22:21:01.445Z,95961.81
2023-04-07T22:23:30.688Z,95958.75
2023-04-07T22:25:59.667Z,95959.88
2023-04-07T22:28:28.645Z,95968.66
2023-04-07T22:31:01.628Z,95972.13
2023-04-07T22:33:30.653Z,95968.88
2023-04-07T22:36:00.592Z,95974.06
2023-04-07T22:38:29.900Z,95980.91
2023-04-07T22:40:58.621Z,95980.91
2023-04-07T22:43:27.676Z,95985.16
2023-04-07T22:45:56.218Z,95988.66
2023-04-07T22:48:25.055Z,95987.03
2023-04-07T22:50:53.692Z,95982.84
2023-04-07T22:53:24.228Z,95985.50
2023-04-07T22:56:17.424Z,95990.81
2023-04-07T22:58:46.380Z,95987.25
2023-04-07T23:01:15.025Z,95997.53
2023-04-07T23:03:46.929Z,95990.06
2023-04-07T23:06:15.817Z,95993.56
2023-04-07T23:08:46.956Z,96000.91
2023-04-07T23:11:16.367Z,95993.34
2023-04-07T23:13:45.515Z,95995.56
2023-04-07T23:16:16.842Z,95995.44
2023-04-07T23:18:48.971Z,96002.38
2023-04-07T23:21:17.963Z,96004.00
2023-04-07T23:23:48.014Z,95998.31
2023-04-07T23:26:16.795Z,96001.41
2023-04-07T23:28:45.475Z,95994.41
2023-04-07T23:31:14.543Z,95994.31
2023-04-07T23:33:46.981Z,95999.06
2023-04-07T23:36:15.482Z,96002.91
2023-04-07T23:38:44.193Z,95995.13
2023-04-07T23:41:15.724Z,96004.66
2023-04-07T23:43:47.887Z,95995.38
2023-04-07T23:46:16.693Z,95994.59
2023-04-07T23:48:45.573Z,95995.84
2023-04-07T23:51:14.916Z,95995.31
2023-04-07T23:53:43.738Z,95993.13
2023-04-07T23:56:14.108Z,95993.59
2023-04-07T23:58:42.905Z,95991.59
